| time (UTC) | temp C | wind direction | speed KPH | gust KPH | rain 1hr cm | rain 24hr cm | rain mn cm | humidity % | barometer mb |
| 20260509211327 | 15 | 269 | 20.9 | 25.7 | 0.00 | 0.03 | 0.00 | 87 | 1003.4 |
| 20260509205827 | 14 | 265 | 16.1 | 29.0 | 0.00 | 0.03 | 0.00 | 89 | 1003.4 |
| 20260509204323 | 14 | 265 | 22.5 | 29.0 | 0.00 | 0.03 | 0.00 | 88 | 1003.7 |
| 20260509203516 | 14 | 247 | 17.7 | 22.5 | 0.00 | 0.03 | 0.00 | 88 | 1003.5 |
| 20260509201319 | 14 | 246 | 14.5 | 17.7 | 0.00 | 0.03 | 0.00 | 89 | 1003.3 |
| 20260509195815 | 13 | 295 | 11.3 | 14.5 | 0.00 | 0.03 | 0.00 | 89 | 1003.2 |
| 20260509194317 | 13 | 275 | 8.0 | 20.9 | 0.00 | 0.03 | 0.00 | 89 | 1003.2 |
| 20260509192810 | 13 | 286 | 11.3 | 14.5 | 0.00 | 0.03 | 0.00 | 90 | 1003.0 |
| 20260509191311 | 13 | 307 | 9.7 | 14.5 | 0.00 | 0.03 | 0.00 | 90 | 1002.9 |
| 20260509185807 | 13 | 325 | 4.8 | 14.5 | 0.00 | 0.03 | 0.00 | 91 | 1003.0 |
| 20260509185012 | 12 | 311 | 11.3 | 16.1 | 0.00 | 0.03 | 0.00 | 91 | 1003.0 |
| 20260509182759 | 12 | 325 | 8.0 | 14.5 | 0.00 | 0.03 | 0.00 | 92 | 1003.1 |
| 20260509181958 | 12 | 319 | 3.2 | 9.7 | 0.00 | 0.03 | 0.00 | 92 | 1003.0 |
| 20260509175755 | 12 | 296 | 4.8 | 14.5 | 0.00 | 0.03 | 0.00 | 92 | 1002.9 |
| 20260509174250 | 12 | 257 | 8.0 | 14.5 | 0.00 | 0.03 | 0.00 | 93 | 1002.7 |
| 20260509172748 | 11 | 29 | 1.6 | 6.4 | 0.00 | 0.03 | 0.00 | 92 | 1002.7 |
| 20260509171247 | 12 | 343 | 1.6 | 9.7 | 0.00 | 0.03 | 0.00 | 91 | 1002.7 |
| 20260509165742 | 12 | 290 | 3.2 | 11.3 | 0.00 | 0.03 | 0.00 | 92 | 1002.7 |
| 20260509164237 | 12 | 280 | 11.3 | 14.5 | 0.00 | 0.03 | 0.00 | 93 | 1002.6 |
| 20260509162735 | 12 | 296 | 8.0 | 14.5 | 0.00 | 0.03 | 0.00 | 93 | 1002.4 |
| 20260509161229 | 12 | 268 | 9.7 | 12.9 | 0.00 | 0.03 | 0.00 | 93 | 1002.5 |
| 20260509160427 | 12 | 257 | 4.8 | 9.7 | 0.00 | 0.03 | 0.00 | 94 | 1002.6 |
| 20260509154224 | 12 | 269 | 4.8 | 11.3 | 0.00 | 0.03 | 0.00 | 93 | 1002.7 |
| 20260509152726 | 12 | 281 | 6.4 | 11.3 | 0.00 | 0.03 | 0.00 | 93 | 1002.9 |
| 20260509151221 | 12 | 248 | 8.0 | 11.3 | 0.00 | 0.03 | 0.00 | 93 | 1003.1 |
| 20260509145721 | 12 | 268 | 1.6 | 4.8 | 0.00 | 0.03 | 0.00 | 93 | 1003.1 |
| 20260509144908 | 13 | 322 | 3.2 | 4.8 | 0.00 | 0.08 | 0.00 | 93 | 1003.2 |
| 20260509142708 | 13 | 322 | 3.2 | 4.8 | 0.00 | 0.15 | 0.00 | 92 | 1003.3 |
| 20260509141208 | 13 | 332 | 0.0 | 3.2 | 0.00 | 0.15 | 0.00 | 92 | 1003.2 |
| 20260509135704 | 14 | 317 | 0.0 | 6.4 | 0.00 | 0.25 | 0.00 | 92 | 1003.2 |
| 20260509134205 | 14 | 208 | 3.2 | 12.9 | 0.00 | 0.41 | 0.00 | 92 | 1003.3 |
| 20260509132700 | 14 | 259 | 4.8 | 9.7 | 0.00 | 0.43 | 0.00 | 92 | 1003.2 |
| 20260509131207 | 14 | 284 | 6.4 | 14.5 | 0.00 | 0.46 | 0.00 | 91 | 1003.1 |
| 20260509130352 | 15 | 295 | 12.9 | 20.9 | 0.00 | 0.48 | 0.00 | 91 | 1003.2 |
| 20260509124152 | 15 | 288 | 14.5 | 22.5 | 0.00 | 0.53 | 0.00 | 91 | 1003.4 |
| 20260509124102 | 15 | 286 | 14.5 | 25.7 | 0.00 | 0.53 | 0.00 | 91 | 1003.5 |
| 20260509121144 | 15 | 275 | 20.9 | 27.4 | 0.00 | 0.53 | 0.00 | 91 | 1003.8 |
| 20260509115640 | 15 | 268 | 14.5 | 30.6 | 0.00 | 0.53 | 0.53 | 91 | 1003.6 |
| 20260509114139 | 15 | 236 | 22.5 | 32.2 | 0.00 | 0.53 | 0.53 | 91 | 1003.4 |
| 20260509112635 | 15 | 262 | 19.3 | 22.5 | 0.00 | 0.53 | 0.53 | 92 | 1003.6 |
| 20260509111131 | 15 | 261 | 9.7 | 14.5 | 0.00 | 0.53 | 0.53 | 92 | 1003.4 |
| 20260509105632 | 15 | 314 | 4.8 | 14.5 | 0.00 | 0.53 | 0.53 | 92 | 1003.4 |
| 20260509104127 | 15 | 274 | 9.7 | 14.5 | 0.00 | 0.53 | 0.53 | 92 | 1003.5 |
| 20260509102627 | 15 | 242 | 1.6 | 4.8 | 0.00 | 0.53 | 0.53 | 92 | 1003.5 |
| 20260509101124 | 15 | 304 | 0.0 | 4.8 | 0.00 | 0.53 | 0.53 | 91 | 1003.6 |
| 20260509095619 | 15 | 298 | 6.4 | 14.5 | 0.00 | 0.53 | 0.53 | 91 | 1003.9 |
| 20260509094119 | 15 | 338 | 8.0 | 16.1 | 0.00 | 0.53 | 0.53 | 91 | 1004.0 |
| 20260509092615 | 15 | 275 | 8.0 | 16.1 | 0.00 | 0.56 | 0.53 | 91 | 1004.1 |
| 20260509091111 | 15 | 299 | 8.0 | 14.5 | 0.00 | 0.56 | 0.53 | 90 | 1004.1 |
| 20260509085612 | 15 | 285 | 3.2 | 12.9 | 0.00 | 0.56 | 0.53 | 89 | 1004.2 |
| 20260509084107 | 15 | 273 | 8.0 | 20.9 | 0.00 | 0.56 | 0.53 | 89 | 1004.2 |
| 20260509082607 | 16 | 282 | 16.1 | 24.1 | 0.00 | 0.56 | 0.53 | 89 | 1004.1 |
| 20260509081104 | 16 | 297 | 14.5 | 19.3 | 0.00 | 0.56 | 0.53 | 90 | 1003.8 |
| 20260509075603 | 15 | 307 | 6.4 | 9.7 | 0.00 | 0.56 | 0.53 | 90 | 1003.8 |
| 20260509074101 | 15 | 299 | 3.2 | 8.0 | 0.00 | 0.56 | 0.53 | 89 | 1003.8 |
| 20260509072555 | 15 | 296 | 6.4 | 12.9 | 0.00 | 0.56 | 0.53 | 90 | 1003.8 |
| 20260509071056 | 15 | 288 | 4.8 | 11.3 | 0.00 | 0.56 | 0.53 | 89 | 1003.8 |
| 20260509065550 | 15 | 291 | 6.4 | 11.3 | 0.00 | 0.56 | 0.53 | 89 | 1003.8 |
| 20260509064739 | 16 | 288 | 6.4 | 11.3 | 0.00 | 0.56 | 0.53 | 89 | 1003.8 |
| 20260509062542 | 16 | 295 | 8.0 | 12.9 | 0.00 | 0.56 | 0.53 | 88 | 1003.7 |
| 20260509061043 | 16 | 315 | 4.8 | 6.4 | 0.00 | 0.58 | 0.53 | 86 | 1003.5 |
| 20260509055540 | 16 | 327 | 4.8 | 6.4 | 0.00 | 0.58 | 0.53 | 86 | 1003.5 |
| 20260509054033 | 16 | 290 | 6.4 | 11.3 | 0.00 | 0.58 | 0.53 | 85 | 1003.3 |
| 20260509052529 | 17 | 302 | 3.2 | 14.5 | 0.00 | 0.58 | 0.53 | 85 | 1003.4 |
| 20260509051025 | 17 | 260 | 16.1 | 22.5 | 0.00 | 0.58 | 0.53 | 85 | 1003.6 |
| 20260509050225 | 18 | 246 | 16.1 | 22.5 | 0.00 | 0.58 | 0.53 | 85 | 1003.6 |
| 20260509044021 | 18 | 258 | 12.9 | 19.3 | 0.00 | 0.58 | 0.53 | 85 | 1003.6 |
| 20260509042521 | 18 | 331 | 4.8 | 12.9 | 0.00 | 0.58 | 0.53 | 85 | 1003.5 |
| 20260509042416 | 18 | 299 | 6.4 | 12.9 | 0.00 | 0.58 | 0.53 | 83 | 1003.6 |
| 20260509035518 | 18 | 285 | 4.8 | 24.1 | 0.00 | 0.58 | 0.53 | 83 | 1003.8 |
| 20260509034013 | 18 | 270 | 6.4 | 16.1 | 0.00 | 0.58 | 0.53 | 82 | 1003.8 |
| 20260509032513 | 18 | 261 | 12.9 | 25.7 | 0.00 | 0.58 | 0.53 | 80 | 1003.8 |
| 20260509031009 | 20 | 264 | 17.7 | 25.7 | 0.00 | 0.58 | 0.53 | 78 | 1003.8 |
| 20260509025509 | 20 | 273 | 4.8 | 16.1 | 0.00 | 0.58 | 0.53 | 80 | 1003.8 |
| 20260509024701 | 19 | 294 | 9.7 | 17.7 | 0.00 | 0.58 | 0.53 | 79 | 1003.8 |
| 20260509022504 | 19 | 292 | 12.9 | 24.1 | 0.00 | 0.58 | 0.53 | 81 | 1004.1 |
| 20260509021001 | 18 | 297 | 19.3 | 29.0 | 0.00 | 0.58 | 0.53 | 83 | 1004.3 |
| 20260509015457 | 19 | 254 | 14.5 | 24.1 | 0.03 | 0.58 | 0.53 | 82 | 1004.4 |
| 20260509013957 | 19 | 269 | 17.7 | 22.5 | 0.03 | 0.58 | 0.53 | 82 | 1004.3 |
| 20260509012454 | 18 | 253 | 9.7 | 22.5 | 0.03 | 0.58 | 0.53 | 85 | 1004.3 |
| 20260509010952 | 18 | 247 | 11.3 | 22.5 | 0.03 | 0.61 | 0.53 | 86 | 1004.7 |
| 20260509005449 | 17 | 266 | 20.9 | 38.6 | 0.00 | 0.66 | 0.51 | 84 | 1004.7 |
| 20260509003945 | 19 | 250 | 22.5 | 27.4 | 0.00 | 0.66 | 0.51 | 80 | 1005.0 |
| 20260509002440 | 20 | 284 | 14.5 | 29.0 | 0.00 | 0.66 | 0.51 | 77 | 1005.2 |
| 20260509000936 | 20 | 244 | 19.3 | 25.7 | 0.00 | 0.66 | 0.51 | 77 | 1005.4 |
| 20260508235438 | 20 | 277 | 14.5 | 24.1 | 0.00 | 0.66 | 0.51 | 78 | 1005.6 |
| 20260508233932 | 20 | 286 | 14.5 | 24.1 | 0.00 | 0.66 | 0.51 | 79 | 1005.8 |
| 20260508232433 | 19 | 251 | 14.5 | 27.4 | 0.00 | 0.69 | 0.51 | 81 | 1005.9 |
| 20260508230928 | 18 | 266 | 20.9 | 29.0 | 0.00 | 0.69 | 0.51 | 81 | 1006.2 |
| 20260508225424 | 18 | 266 | 12.9 | 25.7 | 0.00 | 0.69 | 0.51 | 84 | 1006.4 |
| 20260508223926 | 18 | 313 | 11.3 | 24.1 | 0.00 | 0.69 | 0.51 | 85 | 1006.6 |
| 20260508222420 | 18 | 268 | 8.0 | 16.1 | 0.00 | 0.71 | 0.51 | 85 | 1006.8 |
| 20260508220921 | 18 | 288 | 12.9 | 22.5 | 0.00 | 0.71 | 0.51 | 85 | 1006.9 |
| 20260508215416 | 18 | 293 | 11.3 | 22.5 | 0.00 | 0.71 | 0.51 | 86 | 1007.0 |
| 20260508213917 | 18 | 290 | 6.4 | 14.5 | 0.00 | 0.71 | 0.51 | 88 | 1007.1 |
| 20260508212414 | 17 | 294 | 6.4 | 12.9 | 0.00 | 0.71 | 0.51 | 90 | 1007.0 |